sensor_id;sensor_type;location;lat;lon;timestamp;temperature;humidity
36450;DHT22;22475;51.390;7.180;2022-11-20T00:00:08;3.70;93.60
36450;DHT22;22475;51.390;7.180;2022-11-20T00:02:35;3.70;93.80
36450;DHT22;22475;51.390;7.180;2022-11-20T00:05:02;3.80;93.80
36450;DHT22;22475;51.390;7.180;2022-11-20T00:07:30;3.80;93.80
36450;DHT22;22475;51.390;7.180;2022-11-20T00:09:57;3.80;93.70
36450;DHT22;22475;51.390;7.180;2022-11-20T00:12:24;3.90;93.70
36450;DHT22;22475;51.390;7.180;2022-11-20T00:14:50;3.90;93.70
36450;DHT22;22475;51.390;7.180;2022-11-20T00:17:17;3.90;93.70
36450;DHT22;22475;51.390;7.180;2022-11-20T00:19:44;3.90;93.60
36450;DHT22;22475;51.390;7.180;2022-11-20T00:22:11;3.90;93.60
36450;DHT22;22475;51.390;7.180;2022-11-20T00:24:39;3.90;93.70
36450;DHT22;22475;51.390;7.180;2022-11-20T00:27:06;4.00;93.90
36450;DHT22;22475;51.390;7.180;2022-11-20T00:29:32;4.00;93.90
36450;DHT22;22475;51.390;7.180;2022-11-20T00:31:59;4.10;93.90
36450;DHT22;22475;51.390;7.180;2022-11-20T00:34:26;4.10;93.80
36450;DHT22;22475;51.390;7.180;2022-11-20T00:36:52;4.10;93.70
36450;DHT22;22475;51.390;7.180;2022-11-20T00:39:19;4.10;93.70
36450;DHT22;22475;51.390;7.180;2022-11-20T00:41:47;4.10;93.70
36450;DHT22;22475;51.390;7.180;2022-11-20T00:44:14;4.00;93.70
36450;DHT22;22475;51.390;7.180;2022-11-20T00:46:41;4.10;93.80
36450;DHT22;22475;51.390;7.180;2022-11-20T00:49:07;4.10;93.80
36450;DHT22;22475;51.390;7.180;2022-11-20T00:51:34;4.10;93.80
36450;DHT22;22475;51.390;7.180;2022-11-20T00:54:01;4.10;93.80
36450;DHT22;22475;51.390;7.180;2022-11-20T00:56:28;4.20;93.90
36450;DHT22;22475;51.390;7.180;2022-11-20T00:58:59;4.20;93.90
36450;DHT22;22475;51.390;7.180;2022-11-20T01:01:26;4.30;93.80
36450;DHT22;22475;51.390;7.180;2022-11-20T01:03:55;4.30;93.90
36450;DHT22;22475;51.390;7.180;2022-11-20T01:06:24;4.30;93.90
36450;DHT22;22475;51.390;7.180;2022-11-20T01:08:53;4.40;94.40
36450;DHT22;22475;51.390;7.180;2022-11-20T01:11:22;4.50;94.20
36450;DHT22;22475;51.390;7.180;2022-11-20T01:13:51;4.60;94.10
36450;DHT22;22475;51.390;7.180;2022-11-20T01:16:21;4.70;94.10
36450;DHT22;22475;51.390;7.180;2022-11-20T01:18:49;4.80;94.10
36450;DHT22;22475;51.390;7.180;2022-11-20T01:21:18;4.90;94.20
36450;DHT22;22475;51.390;7.180;2022-11-20T01:23:47;4.90;94.10
36450;DHT22;22475;51.390;7.180;2022-11-20T01:26:15;5.00;94.00
36450;DHT22;22475;51.390;7.180;2022-11-20T01:28:42;4.90;93.80
36450;DHT22;22475;51.390;7.180;2022-11-20T01:31:14;4.90;93.80
36450;DHT22;22475;51.390;7.180;2022-11-20T01:33:44;4.80;93.70
36450;DHT22;22475;51.390;7.180;2022-11-20T01:36:11;4.80;93.70
36450;DHT22;22475;51.390;7.180;2022-11-20T01:38:39;4.80;93.80
36450;DHT22;22475;51.390;7.180;2022-11-20T01:41:06;4.80;93.90
36450;DHT22;22475;51.390;7.180;2022-11-20T01:43:34;4.70;93.90
36450;DHT22;22475;51.390;7.180;2022-11-20T01:46:06;4.80;94.00
36450;DHT22;22475;51.390;7.180;2022-11-20T01:48:40;4.80;93.90
36450;DHT22;22475;51.390;7.180;2022-11-20T01:51:17;4.80;93.90
36450;DHT22;22475;51.390;7.180;2022-11-20T01:53:45;4.80;93.90
36450;DHT22;22475;51.390;7.180;2022-11-20T01:56:13;4.80;93.90
36450;DHT22;22475;51.390;7.180;2022-11-20T01:58:44;4.80;94.30
36450;DHT22;22475;51.390;7.180;2022-11-20T02:01:14;4.80;94.10
36450;DHT22;22475;51.390;7.180;2022-11-20T02:03:41;4.90;94.50
36450;DHT22;22475;51.390;7.180;2022-11-20T02:06:14;5.20;94.80
36450;DHT22;22475;51.390;7.180;2022-11-20T02:08:42;5.30;94.70
36450;DHT22;22475;51.390;7.180;2022-11-20T02:11:09;5.50;94.60
36450;DHT22;22475;51.390;7.180;2022-11-20T02:13:38;5.50;94.30
36450;DHT22;22475;51.390;7.180;2022-11-20T02:16:12;5.50;94.20
36450;DHT22;22475;51.390;7.180;2022-11-20T02:18:41;5.50;94.10
36450;DHT22;22475;51.390;7.180;2022-11-20T02:21:16;5.40;94.00
36450;DHT22;22475;51.390;7.180;2022-11-20T02:24:08;5.30;93.90
36450;DHT22;22475;51.390;7.180;2022-11-20T02:26:44;5.20;94.00
36450;DHT22;22475;51.390;7.180;2022-11-20T02:29:14;5.20;94.20
36450;DHT22;22475;51.390;7.180;2022-11-20T02:31:42;5.20;94.20
36450;DHT22;22475;51.390;7.180;2022-11-20T02:34:09;5.20;94.20
36450;DHT22;22475;51.390;7.180;2022-11-20T02:36:39;5.20;94.20
36450;DHT22;22475;51.390;7.180;2022-11-20T02:39:09;5.20;94.20
36450;DHT22;22475;51.390;7.180;2022-11-20T02:41:37;5.20;94.10
36450;DHT22;22475;51.390;7.180;2022-11-20T02:44:05;5.20;94.00
36450;DHT22;22475;51.390;7.180;2022-11-20T02:46:32;5.20;94.10
36450;DHT22;22475;51.390;7.180;2022-11-20T02:49:01;5.30;94.20
36450;DHT22;22475;51.390;7.180;2022-11-20T02:51:28;5.40;94.20
36450;DHT22;22475;51.390;7.180;2022-11-20T02:53:54;5.40;94.10
36450;DHT22;22475;51.390;7.180;2022-11-20T02:56:23;5.40;94.10
36450;DHT22;22475;51.390;7.180;2022-11-20T02:58:49;5.50;94.10
36450;DHT22;22475;51.390;7.180;2022-11-20T03:01:16;5.50;94.10
36450;DHT22;22475;51.390;7.180;2022-11-20T03:03:43;5.50;94.00
36450;DHT22;22475;51.390;7.180;2022-11-20T03:06:10;5.50;94.00
36450;DHT22;22475;51.390;7.180;2022-11-20T03:08:37;5.50;94.00
36450;DHT22;22475;51.390;7.180;2022-11-20T03:11:05;5.40;94.00
36450;DHT22;22475;51.390;7.180;2022-11-20T03:13:34;5.40;94.10
36450;DHT22;22475;51.390;7.180;2022-11-20T03:16:09;5.40;94.00
36450;DHT22;22475;51.390;7.180;2022-11-20T03:18:37;5.30;94.00
36450;DHT22;22475;51.390;7.180;2022-11-20T03:21:04;5.30;94.10
36450;DHT22;22475;51.390;7.180;2022-11-20T03:23:31;5.40;94.30
36450;DHT22;22475;51.390;7.180;2022-11-20T03:26:12;5.50;94.30
36450;DHT22;22475;51.390;7.180;2022-11-20T03:28:41;5.50;94.10
36450;DHT22;22475;51.390;7.180;2022-11-20T03:31:10;5.50;93.90
36450;DHT22;22475;51.390;7.180;2022-11-20T03:33:38;5.50;93.90
36450;DHT22;22475;51.390;7.180;2022-11-20T03:36:06;5.40;93.90
36450;DHT22;22475;51.390;7.180;2022-11-20T03:38:34;5.40;93.90
36450;DHT22;22475;51.390;7.180;2022-11-20T03:41:02;5.40;94.00
36450;DHT22;22475;51.390;7.180;2022-11-20T03:43:29;5.40;94.10
36450;DHT22;22475;51.390;7.180;2022-11-20T03:45:57;5.40;94.20
36450;DHT22;22475;51.390;7.180;2022-11-20T03:48:24;5.50;94.60
36450;DHT22;22475;51.390;7.180;2022-11-20T03:50:51;5.60;94.40
36450;DHT22;22475;51.390;7.180;2022-11-20T03:53:19;5.70;94.40
36450;DHT22;22475;51.390;7.180;2022-11-20T03:55:50;5.70;94.40
36450;DHT22;22475;51.390;7.180;2022-11-20T03:58:17;5.80;94.30
36450;DHT22;22475;51.390;7.180;2022-11-20T04:00:44;5.80;94.20
36450;DHT22;22475;51.390;7.180;2022-11-20T04:03:12;5.80;94.20
36450;DHT22;22475;51.390;7.180;2022-11-20T04:05:39;5.80;94.10
36450;DHT22;22475;51.390;7.180;2022-11-20T04:08:06;5.80;94.00
36450;DHT22;22475;51.390;7.180;2022-11-20T04:10:33;5.80;94.10
36450;DHT22;22475;51.390;7.180;2022-11-20T04:13:00;5.80;94.10
36450;DHT22;22475;51.390;7.180;2022-11-20T04:15:26;5.70;94.20
36450;DHT22;22475;51.390;7.180;2022-11-20T04:17:54;5.80;94.20
36450;DHT22;22475;51.390;7.180;2022-11-20T04:20:22;5.70;94.10
36450;DHT22;22475;51.390;7.180;2022-11-20T04:22:48;5.70;94.10
36450;DHT22;22475;51.390;7.180;2022-11-20T04:25:15;5.70;94.20
36450;DHT22;22475;51.390;7.180;2022-11-20T04:27:42;5.70;94.20
36450;DHT22;22475;51.390;7.180;2022-11-20T04:30:10;5.70;94.20
36450;DHT22;22475;51.390;7.180;2022-11-20T04:32:36;5.60;94.40
36450;DHT22;22475;51.390;7.180;2022-11-20T04:35:04;5.60;94.10
36450;DHT22;22475;51.390;7.180;2022-11-20T04:37:32;5.60;94.30
36450;DHT22;22475;51.390;7.180;2022-11-20T04:39:59;5.60;94.30
36450;DHT22;22475;51.390;7.180;2022-11-20T04:42:26;5.60;94.30
36450;DHT22;22475;51.390;7.180;2022-11-20T04:44:56;5.60;94.40
36450;DHT22;22475;51.390;7.180;2022-11-20T04:47:23;5.60;94.30
36450;DHT22;22475;51.390;7.180;2022-11-20T04:49:50;5.60;94.30
36450;DHT22;22475;51.390;7.180;2022-11-20T04:52:17;5.60;94.20
36450;DHT22;22475;51.390;7.180;2022-11-20T04:54:45;5.50;94.30
36450;DHT22;22475;51.390;7.180;2022-11-20T04:57:13;5.50;94.30
36450;DHT22;22475;51.390;7.180;2022-11-20T04:59:40;5.50;94.40
36450;DHT22;22475;51.390;7.180;2022-11-20T05:02:07;5.60;94.40
36450;DHT22;22475;51.390;7.180;2022-11-20T05:04:34;5.70;94.40
36450;DHT22;22475;51.390;7.180;2022-11-20T05:07:01;5.70;94.40
36450;DHT22;22475;51.390;7.180;2022-11-20T05:09:28;5.60;94.30
36450;DHT22;22475;51.390;7.180;2022-11-20T05:11:56;5.60;94.30
36450;DHT22;22475;51.390;7.180;2022-11-20T05:14:22;5.50;94.40
36450;DHT22;22475;51.390;7.180;2022-11-20T05:16:49;5.50;94.50
36450;DHT22;22475;51.390;7.180;2022-11-20T05:19:16;5.50;94.50
36450;DHT22;22475;51.390;7.180;2022-11-20T05:21:42;5.50;94.50
36450;DHT22;22475;51.390;7.180;2022-11-20T05:24:09;5.50;94.50
36450;DHT22;22475;51.390;7.180;2022-11-20T05:26:36;5.50;94.60
36450;DHT22;22475;51.390;7.180;2022-11-20T05:29:04;5.50;94.60
36450;DHT22;22475;51.390;7.180;2022-11-20T05:31:31;5.60;94.50
36450;DHT22;22475;51.390;7.180;2022-11-20T05:33:58;5.50;94.40
36450;DHT22;22475;51.390;7.180;2022-11-20T05:36:25;5.50;94.40
36450;DHT22;22475;51.390;7.180;2022-11-20T05:38:51;5.50;94.40
36450;DHT22;22475;51.390;7.180;2022-11-20T05:41:19;5.50;94.50
36450;DHT22;22475;51.390;7.180;2022-11-20T05:43:48;5.50;94.60
36450;DHT22;22475;51.390;7.180;2022-11-20T05:46:17;5.50;94.60
36450;DHT22;22475;51.390;7.180;2022-11-20T05:48:45;5.50;94.60
36450;DHT22;22475;51.390;7.180;2022-11-20T05:51:15;5.50;94.70
36450;DHT22;22475;51.390;7.180;2022-11-20T05:53:42;5.60;94.70
36450;DHT22;22475;51.390;7.180;2022-11-20T05:56:11;5.60;94.60
36450;DHT22;22475;51.390;7.180;2022-11-20T05:58:38;5.60;94.60
36450;DHT22;22475;51.390;7.180;2022-11-20T06:01:06;5.70;94.60
36450;DHT22;22475;51.390;7.180;2022-11-20T06:03:36;5.60;94.70
36450;DHT22;22475;51.390;7.180;2022-11-20T06:06:04;5.70;94.80
36450;DHT22;22475;51.390;7.180;2022-11-20T06:08:31;5.70;94.80
36450;DHT22;22475;51.390;7.180;2022-11-20T06:10:58;5.70;94.80
36450;DHT22;22475;51.390;7.180;2022-11-20T06:13:29;5.80;94.70
36450;DHT22;22475;51.390;7.180;2022-11-20T06:15:55;5.70;94.60
36450;DHT22;22475;51.390;7.180;2022-11-20T06:18:22;5.70;94.60
36450;DHT22;22475;51.390;7.180;2022-11-20T06:20:59;5.80;94.90
36450;DHT22;22475;51.390;7.180;2022-11-20T06:23:28;5.80;94.90
36450;DHT22;22475;51.390;7.180;2022-11-20T06:25:54;5.90;94.80
36450;DHT22;22475;51.390;7.180;2022-11-20T06:28:21;5.80;94.70
36450;DHT22;22475;51.390;7.180;2022-11-20T06:30:48;5.80;94.70
36450;DHT22;22475;51.390;7.180;2022-11-20T06:33:15;5.80;94.60
36450;DHT22;22475;51.390;7.180;2022-11-20T06:35:41;5.70;94.60
36450;DHT22;22475;51.390;7.180;2022-11-20T06:38:09;5.70;94.60
36450;DHT22;22475;51.390;7.180;2022-11-20T06:40:39;5.70;94.70
36450;DHT22;22475;51.390;7.180;2022-11-20T06:43:06;5.60;94.60
36450;DHT22;22475;51.390;7.180;2022-11-20T06:45:33;5.60;94.70
36450;DHT22;22475;51.390;7.180;2022-11-20T06:48:00;5.60;94.90
36450;DHT22;22475;51.390;7.180;2022-11-20T06:50:26;5.70;94.80
36450;DHT22;22475;51.390;7.180;2022-11-20T06:52:53;5.70;94.70
36450;DHT22;22475;51.390;7.180;2022-11-20T06:55:21;5.70;94.70
36450;DHT22;22475;51.390;7.180;2022-11-20T06:57:48;5.70;94.80
36450;DHT22;22475;51.390;7.180;2022-11-20T07:00:15;5.70;94.80
36450;DHT22;22475;51.390;7.180;2022-11-20T07:02:42;5.60;94.80
36450;DHT22;22475;51.390;7.180;2022-11-20T07:05:08;5.50;95.10
36450;DHT22;22475;51.390;7.180;2022-11-20T07:07:35;5.50;94.80
36450;DHT22;22475;51.390;7.180;2022-11-20T07:10:02;5.50;94.80
36450;DHT22;22475;51.390;7.180;2022-11-20T07:12:30;5.40;94.80
36450;DHT22;22475;51.390;7.180;2022-11-20T07:14:57;5.40;94.80
36450;DHT22;22475;51.390;7.180;2022-11-20T07:17:24;5.40;94.80
36450;DHT22;22475;51.390;7.180;2022-11-20T07:19:50;5.30;94.80
36450;DHT22;22475;51.390;7.180;2022-11-20T07:22:17;5.20;94.70
36450;DHT22;22475;51.390;7.180;2022-11-20T07:24:47;5.20;94.80
36450;DHT22;22475;51.390;7.180;2022-11-20T07:27:13;5.20;94.70
36450;DHT22;22475;51.390;7.180;2022-11-20T07:29:42;5.10;94.70
36450;DHT22;22475;51.390;7.180;2022-11-20T07:32:08;5.10;94.70
36450;DHT22;22475;51.390;7.180;2022-11-20T07:34:35;5.10;94.70
36450;DHT22;22475;51.390;7.180;2022-11-20T07:37:02;5.10;94.90
36450;DHT22;22475;51.390;7.180;2022-11-20T07:39:28;5.10;94.90
36450;DHT22;22475;51.390;7.180;2022-11-20T07:41:55;5.10;94.80
36450;DHT22;22475;51.390;7.180;2022-11-20T07:44:22;5.10;94.80
36450;DHT22;22475;51.390;7.180;2022-11-20T07:46:53;5.10;94.80
36450;DHT22;22475;51.390;7.180;2022-11-20T07:49:20;5.10;95.10
36450;DHT22;22475;51.390;7.180;2022-11-20T07:51:47;5.10;94.80
36450;DHT22;22475;51.390;7.180;2022-11-20T07:54:16;5.10;94.80
36450;DHT22;22475;51.390;7.180;2022-11-20T07:56:43;5.00;94.80
36450;DHT22;22475;51.390;7.180;2022-11-20T07:59:09;5.10;94.80
36450;DHT22;22475;51.390;7.180;2022-11-20T08:01:37;5.10;94.80
36450;DHT22;22475;51.390;7.180;2022-11-20T08:04:05;5.10;94.80
36450;DHT22;22475;51.390;7.180;2022-11-20T08:06:34;5.10;94.80
36450;DHT22;22475;51.390;7.180;2022-11-20T08:09:00;5.10;94.90
36450;DHT22;22475;51.390;7.180;2022-11-20T08:11:27;5.10;94.90
36450;DHT22;22475;51.390;7.180;2022-11-20T08:14:11;5.20;94.90
36450;DHT22;22475;51.390;7.180;2022-11-20T08:16:38;5.20;94.80
36450;DHT22;22475;51.390;7.180;2022-11-20T08:19:07;5.20;94.80
36450;DHT22;22475;51.390;7.180;2022-11-20T08:21:34;5.20;94.80
36450;DHT22;22475;51.390;7.180;2022-11-20T08:24:01;5.20;94.90
36450;DHT22;22475;51.390;7.180;2022-11-20T08:26:27;5.20;95.00
36450;DHT22;22475;51.390;7.180;2022-11-20T08:28:55;5.20;95.10
36450;DHT22;22475;51.390;7.180;2022-11-20T08:31:22;5.20;95.10
36450;DHT22;22475;51.390;7.180;2022-11-20T08:33:49;5.30;95.20
36450;DHT22;22475;51.390;7.180;2022-11-20T08:36:18;5.30;95.20
36450;DHT22;22475;51.390;7.180;2022-11-20T08:38:47;5.40;95.20
36450;DHT22;22475;51.390;7.180;2022-11-20T08:41:14;5.40;95.30
36450;DHT22;22475;51.390;7.180;2022-11-20T08:43:52;5.50;95.20
36450;DHT22;22475;51.390;7.180;2022-11-20T08:46:19;5.60;95.20
36450;DHT22;22475;51.390;7.180;2022-11-20T08:48:46;5.60;95.10
36450;DHT22;22475;51.390;7.180;2022-11-20T08:51:13;5.60;95.10
36450;DHT22;22475;51.390;7.180;2022-11-20T08:53:41;5.60;95.10
36450;DHT22;22475;51.390;7.180;2022-11-20T08:56:08;5.60;95.10
36450;DHT22;22475;51.390;7.180;2022-11-20T08:58:36;5.70;95.10
36450;DHT22;22475;51.390;7.180;2022-11-20T09:01:03;5.60;95.10
36450;DHT22;22475;51.390;7.180;2022-11-20T09:03:30;5.60;95.20
36450;DHT22;22475;51.390;7.180;2022-11-20T09:05:57;5.60;95.20
36450;DHT22;22475;51.390;7.180;2022-11-20T09:08:25;5.70;95.30
36450;DHT22;22475;51.390;7.180;2022-11-20T09:10:54;5.70;95.30
36450;DHT22;22475;51.390;7.180;2022-11-20T09:13:22;5.70;95.30
36450;DHT22;22475;51.390;7.180;2022-11-20T09:15:53;5.70;95.30
36450;DHT22;22475;51.390;7.180;2022-11-20T09:18:20;5.80;95.30
36450;DHT22;22475;51.390;7.180;2022-11-20T09:20:46;5.90;95.30
36450;DHT22;22475;51.390;7.180;2022-11-20T09:23:13;5.90;95.10
36450;DHT22;22475;51.390;7.180;2022-11-20T09:25:40;5.90;95.10
36450;DHT22;22475;51.390;7.180;2022-11-20T09:28:08;5.90;95.10
36450;DHT22;22475;51.390;7.180;2022-11-20T09:30:35;5.90;95.10
36450;DHT22;22475;51.390;7.180;2022-11-20T09:33:04;5.90;95.10
36450;DHT22;22475;51.390;7.180;2022-11-20T09:35:31;6.00;95.10
36450;DHT22;22475;51.390;7.180;2022-11-20T09:37:57;6.10;95.10
36450;DHT22;22475;51.390;7.180;2022-11-20T09:40:26;6.10;95.10
36450;DHT22;22475;51.390;7.180;2022-11-20T09:42:56;6.20;95.00
36450;DHT22;22475;51.390;7.180;2022-11-20T09:45:35;6.20;95.00
36450;DHT22;22475;51.390;7.180;2022-11-20T09:48:18;6.30;95.00
36450;DHT22;22475;51.390;7.180;2022-11-20T09:50:51;6.40;94.90
36450;DHT22;22475;51.390;7.180;2022-11-20T09:53:25;6.40;94.90
36450;DHT22;22475;51.390;7.180;2022-11-20T09:55:55;6.50;94.80
36450;DHT22;22475;51.390;7.180;2022-11-20T09:58:27;6.50;94.80
36450;DHT22;22475;51.390;7.180;2022-11-20T10:01:03;6.50;94.80
36450;DHT22;22475;51.390;7.180;2022-11-20T10:03:45;6.60;94.80
36450;DHT22;22475;51.390;7.180;2022-11-20T10:06:19;6.70;94.80
36450;DHT22;22475;51.390;7.180;2022-11-20T10:08:58;6.80;94.70
36450;DHT22;22475;51.390;7.180;2022-11-20T10:11:35;6.90;94.70
36450;DHT22;22475;51.390;7.180;2022-11-20T10:14:16;7.00;94.70
36450;DHT22;22475;51.390;7.180;2022-11-20T10:16:48;7.10;94.80
36450;DHT22;22475;51.390;7.180;2022-11-20T10:19:46;7.20;94.80
36450;DHT22;22475;51.390;7.180;2022-11-20T10:22:22;7.30;94.60
36450;DHT22;22475;51.390;7.180;2022-11-20T10:24:56;7.50;94.50
36450;DHT22;22475;51.390;7.180;2022-11-20T10:30:19;7.60;94.40
36450;DHT22;22475;51.390;7.180;2022-11-20T10:32:51;7.60;94.30
36450;DHT22;22475;51.390;7.180;2022-11-20T10:35:21;7.60;94.20
36450;DHT22;22475;51.390;7.180;2022-11-20T10:37:54;7.70;94.10
36450;DHT22;22475;51.390;7.180;2022-11-20T10:40:27;7.70;94.10
36450;DHT22;22475;51.390;7.180;2022-11-20T10:42:57;7.70;93.90
36450;DHT22;22475;51.390;7.180;2022-11-20T10:45:45;7.80;93.80
36450;DHT22;22475;51.390;7.180;2022-11-20T10:48:21;7.70;93.60
36450;DHT22;22475;51.390;7.180;2022-11-20T10:51:06;7.80;93.50
36450;DHT22;22475;51.390;7.180;2022-11-20T10:53:49;7.80;93.50
36450;DHT22;22475;51.390;7.180;2022-11-20T10:56:21;7.80;93.40
36450;DHT22;22475;51.390;7.180;2022-11-20T10:59:02;7.70;93.40
36450;DHT22;22475;51.390;7.180;2022-11-20T11:01:29;7.70;93.40
36450;DHT22;22475;51.390;7.180;2022-11-20T11:03:58;7.80;93.40
36450;DHT22;22475;51.390;7.180;2022-11-20T11:06:31;7.80;93.40
36450;DHT22;22475;51.390;7.180;2022-11-20T11:09:04;7.80;93.30
36450;DHT22;22475;51.390;7.180;2022-11-20T11:11:35;7.80;93.10
36450;DHT22;22475;51.390;7.180;2022-11-20T11:14:05;7.90;93.10
36450;DHT22;22475;51.390;7.180;2022-11-20T11:16:32;7.80;93.00
36450;DHT22;22475;51.390;7.180;2022-11-20T11:19:13;7.80;92.90
36450;DHT22;22475;51.390;7.180;2022-11-20T11:21:46;7.90;92.90
36450;DHT22;22475;51.390;7.180;2022-11-20T11:24:20;7.90;93.00
36450;DHT22;22475;51.390;7.180;2022-11-20T11:26:53;7.90;93.10
36450;DHT22;22475;51.390;7.180;2022-11-20T11:29:21;8.00;93.10
36450;DHT22;22475;51.390;7.180;2022-11-20T11:31:49;8.00;93.00
36450;DHT22;22475;51.390;7.180;2022-11-20T11:34:17;8.10;93.00
36450;DHT22;22475;51.390;7.180;2022-11-20T11:36:52;8.20;93.20
36450;DHT22;22475;51.390;7.180;2022-11-20T11:39:21;8.30;93.30
36450;DHT22;22475;51.390;7.180;2022-11-20T11:41:48;8.40;93.30
36450;DHT22;22475;51.390;7.180;2022-11-20T11:44:17;8.40;93.20
36450;DHT22;22475;51.390;7.180;2022-11-20T11:47:04;8.40;93.10
36450;DHT22;22475;51.390;7.180;2022-11-20T11:49:33;8.50;93.10
36450;DHT22;22475;51.390;7.180;2022-11-20T11:52:04;8.50;93.00
36450;DHT22;22475;51.390;7.180;2022-11-20T11:54:38;8.60;92.80
36450;DHT22;22475;51.390;7.180;2022-11-20T11:57:12;8.60;92.70
36450;DHT22;22475;51.390;7.180;2022-11-20T12:00:00;8.60;92.70
36450;DHT22;22475;51.390;7.180;2022-11-20T12:02:36;8.60;92.80
36450;DHT22;22475;51.390;7.180;2022-11-20T12:05:14;8.60;92.80
36450;DHT22;22475;51.390;7.180;2022-11-20T12:07:46;8.60;93.00
36450;DHT22;22475;51.390;7.180;2022-11-20T12:10:19;8.70;93.00
36450;DHT22;22475;51.390;7.180;2022-11-20T12:12:51;8.70;93.00
36450;DHT22;22475;51.390;7.180;2022-11-20T12:15:26;8.60;92.60
36450;DHT22;22475;51.390;7.180;2022-11-20T12:17:53;8.60;92.50
36450;DHT22;22475;51.390;7.180;2022-11-20T12:20:23;8.60;92.50
36450;DHT22;22475;51.390;7.180;2022-11-20T12:22:56;8.50;92.40
36450;DHT22;22475;51.390;7.180;2022-11-20T12:25:29;8.50;92.30
36450;DHT22;22475;51.390;7.180;2022-11-20T12:28:23;8.40;92.20
36450;DHT22;22475;51.390;7.180;2022-11-20T12:31:07;8.40;92.20
36450;DHT22;22475;51.390;7.180;2022-11-20T12:33:57;8.30;92.20
36450;DHT22;22475;51.390;7.180;2022-11-20T12:36:36;8.30;92.20
36450;DHT22;22475;51.390;7.180;2022-11-20T12:39:32;8.20;92.20
36450;DHT22;22475;51.390;7.180;2022-11-20T12:42:25;8.10;92.20
36450;DHT22;22475;51.390;7.180;2022-11-20T12:45:24;8.10;92.30
36450;DHT22;22475;51.390;7.180;2022-11-20T12:48:03;8.10;92.50
36450;DHT22;22475;51.390;7.180;2022-11-20T12:50:44;8.10;92.50
36450;DHT22;22475;51.390;7.180;2022-11-20T12:53:25;8.10;92.60
36450;DHT22;22475;51.390;7.180;2022-11-20T12:55:59;8.20;92.90
36450;DHT22;22475;51.390;7.180;2022-11-20T12:58:33;8.30;92.90
36450;DHT22;22475;51.390;7.180;2022-11-20T13:01:09;8.30;92.80
36450;DHT22;22475;51.390;7.180;2022-11-20T13:04:18;8.30;92.80
36450;DHT22;22475;51.390;7.180;2022-11-20T13:06:50;8.40;93.10
36450;DHT22;22475;51.390;7.180;2022-11-20T13:09:20;8.40;92.70
36450;DHT22;22475;51.390;7.180;2022-11-20T13:11:53;8.30;92.60
36450;DHT22;22475;51.390;7.180;2022-11-20T13:14:31;8.30;92.50
36450;DHT22;22475;51.390;7.180;2022-11-20T13:17:05;8.30;92.40
36450;DHT22;22475;51.390;7.180;2022-11-20T13:19:35;8.30;92.30
36450;DHT22;22475;51.390;7.180;2022-11-20T13:22:02;8.20;92.20
36450;DHT22;22475;51.390;7.180;2022-11-20T13:24:31;8.20;92.20
36450;DHT22;22475;51.390;7.180;2022-11-20T13:27:04;8.20;92.20
36450;DHT22;22475;51.390;7.180;2022-11-20T13:29:31;8.20;92.20
36450;DHT22;22475;51.390;7.180;2022-11-20T13:32:06;8.20;92.20
36450;DHT22;22475;51.390;7.180;2022-11-20T13:34:34;8.20;92.20
36450;DHT22;22475;51.390;7.180;2022-11-20T13:37:01;8.20;92.20
36450;DHT22;22475;51.390;7.180;2022-11-20T13:39:32;8.20;92.20
36450;DHT22;22475;51.390;7.180;2022-11-20T13:42:01;8.20;92.10
36450;DHT22;22475;51.390;7.180;2022-11-20T13:44:33;8.20;92.10
36450;DHT22;22475;51.390;7.180;2022-11-20T13:47:03;8.20;92.10
36450;DHT22;22475;51.390;7.180;2022-11-20T13:49:32;8.10;92.10
36450;DHT22;22475;51.390;7.180;2022-11-20T13:52:31;8.10;92.50
36450;DHT22;22475;51.390;7.180;2022-11-20T13:55:11;8.10;92.20
36450;DHT22;22475;51.390;7.180;2022-11-20T13:58:04;8.10;92.20
36450;DHT22;22475;51.390;7.180;2022-11-20T14:00:33;8.10;92.20
36450;DHT22;22475;51.390;7.180;2022-11-20T14:03:13;8.10;92.20
36450;DHT22;22475;51.390;7.180;2022-11-20T14:05:50;8.10;92.30
36450;DHT22;22475;51.390;7.180;2022-11-20T14:08:25;8.10;92.30
36450;DHT22;22475;51.390;7.180;2022-11-20T14:11:04;8.10;92.30
36450;DHT22;22475;51.390;7.180;2022-11-20T14:13:31;8.10;92.40
36450;DHT22;22475;51.390;7.180;2022-11-20T14:15:58;8.20;92.60
36450;DHT22;22475;51.390;7.180;2022-11-20T14:18:26;8.30;92.70
36450;DHT22;22475;51.390;7.180;2022-11-20T14:20:53;8.30;92.70
36450;DHT22;22475;51.390;7.180;2022-11-20T14:23:27;8.30;92.70
36450;DHT22;22475;51.390;7.180;2022-11-20T14:25:54;8.30;92.70
36450;DHT22;22475;51.390;7.180;2022-11-20T14:28:26;8.40;92.80
36450;DHT22;22475;51.390;7.180;2022-11-20T14:30:54;8.40;92.90
36450;DHT22;22475;51.390;7.180;2022-11-20T14:33:22;8.40;92.90
36450;DHT22;22475;51.390;7.180;2022-11-20T14:35:52;8.50;92.80
36450;DHT22;22475;51.390;7.180;2022-11-20T14:38:22;8.50;92.80
36450;DHT22;22475;51.390;7.180;2022-11-20T14:40:50;8.40;92.70
36450;DHT22;22475;51.390;7.180;2022-11-20T14:43:20;8.40;92.70
36450;DHT22;22475;51.390;7.180;2022-11-20T14:45:56;8.40;92.80
36450;DHT22;22475;51.390;7.180;2022-11-20T14:48:28;8.30;92.80
36450;DHT22;22475;51.390;7.180;2022-11-20T14:50:56;8.30;92.80
36450;DHT22;22475;51.390;7.180;2022-11-20T14:53:24;8.30;92.80
36450;DHT22;22475;51.390;7.180;2022-11-20T14:55:56;8.20;92.90
36450;DHT22;22475;51.390;7.180;2022-11-20T14:58:24;8.20;93.00
36450;DHT22;22475;51.390;7.180;2022-11-20T15:00:58;8.20;93.10
36450;DHT22;22475;51.390;7.180;2022-11-20T15:03:31;8.20;93.20
36450;DHT22;22475;51.390;7.180;2022-11-20T15:05:58;8.20;93.20
36450;DHT22;22475;51.390;7.180;2022-11-20T15:08:25;8.20;93.30
36450;DHT22;22475;51.390;7.180;2022-11-20T15:10:53;8.20;93.30
36450;DHT22;22475;51.390;7.180;2022-11-20T15:13:26;8.10;93.40
36450;DHT22;22475;51.390;7.180;2022-11-20T15:15:56;8.10;93.40
36450;DHT22;22475;51.390;7.180;2022-11-20T15:18:27;8.10;93.50
36450;DHT22;22475;51.390;7.180;2022-11-20T15:20:54;8.10;93.60
36450;DHT22;22475;51.390;7.180;2022-11-20T15:23:21;8.10;93.60
36450;DHT22;22475;51.390;7.180;2022-11-20T15:25:49;8.10;93.50
36450;DHT22;22475;51.390;7.180;2022-11-20T15:28:18;8.10;93.50
36450;DHT22;22475;51.390;7.180;2022-11-20T15:30:46;8.10;93.60
36450;DHT22;22475;51.390;7.180;2022-11-20T15:33:15;8.10;93.60
36450;DHT22;22475;51.390;7.180;2022-11-20T15:35:42;8.00;93.70
36450;DHT22;22475;51.390;7.180;2022-11-20T15:38:09;8.00;93.80
36450;DHT22;22475;51.390;7.180;2022-11-20T15:40:36;8.00;93.80
36450;DHT22;22475;51.390;7.180;2022-11-20T15:43:03;8.00;93.90
36450;DHT22;22475;51.390;7.180;2022-11-20T15:45:34;8.00;94.30
36450;DHT22;22475;51.390;7.180;2022-11-20T15:48:03;8.00;94.00
36450;DHT22;22475;51.390;7.180;2022-11-20T15:50:37;8.00;94.00
36450;DHT22;22475;51.390;7.180;2022-11-20T15:53:04;8.00;94.10
36450;DHT22;22475;51.390;7.180;2022-11-20T15:55:31;7.90;94.10
36450;DHT22;22475;51.390;7.180;2022-11-20T15:57:58;7.90;94.10
36450;DHT22;22475;51.390;7.180;2022-11-20T16:00:25;7.90;94.20
36450;DHT22;22475;51.390;7.180;2022-11-20T16:02:51;7.90;94.20
36450;DHT22;22475;51.390;7.180;2022-11-20T16:05:18;7.90;94.20